sensor_id;sensor_type;location;lat;lon;timestamp;P1;durP1;ratioP1;P2;durP2;ratioP2
2544;SDS011;36212;48.838;9.142;2024-01-15T00:01:19;22.42;;;13.48;;
2544;SDS011;36212;48.838;9.142;2024-01-15T00:03:51;18.15;;;13.20;;
2544;SDS011;36212;48.838;9.142;2024-01-15T00:06:25;21.17;;;12.95;;
2544;SDS011;36212;48.838;9.142;2024-01-15T00:08:59;21.55;;;13.10;;
2544;SDS011;36212;48.838;9.142;2024-01-15T00:11:31;18.30;;;14.82;;
2544;SDS011;36212;48.838;9.142;2024-01-15T00:14:04;16.88;;;11.45;;
2544;SDS011;36212;48.838;9.142;2024-01-15T00:16:36;20.55;;;13.45;;
2544;SDS011;36212;48.838;9.142;2024-01-15T00:19:10;14.80;;;11.88;;
2544;SDS011;36212;48.838;9.142;2024-01-15T00:21:43;20.70;;;14.70;;
2544;SDS011;36212;48.838;9.142;2024-01-15T00:24:16;17.95;;;13.80;;
2544;SDS011;36212;48.838;9.142;2024-01-15T00:26:49;19.65;;;12.77;;
2544;SDS011;36212;48.838;9.142;2024-01-15T00:29:21;17.70;;;12.93;;
2544;SDS011;36212;48.838;9.142;2024-01-15T00:31:54;17.20;;;13.45;;
2544;SDS011;36212;48.838;9.142;2024-01-15T00:34:26;20.33;;;13.15;;
2544;SDS011;36212;48.838;9.142;2024-01-15T00:36:58;15.82;;;13.05;;
2544;SDS011;36212;48.838;9.142;2024-01-15T00:39:31;16.70;;;11.73;;
2544;SDS011;36212;48.838;9.142;2024-01-15T00:42:03;20.17;;;12.98;;
2544;SDS011;36212;48.838;9.142;2024-01-15T00:44:36;16.52;;;13.40;;
2544;SDS011;36212;48.838;9.142;2024-01-15T00:47:08;15.45;;;11.55;;
2544;SDS011;36212;48.838;9.142;2024-01-15T00:49:40;16.90;;;11.93;;
2544;SDS011;36212;48.838;9.142;2024-01-15T00:52:13;13.00;;;11.43;;
2544;SDS011;36212;48.838;9.142;2024-01-15T00:54:45;16.02;;;12.32;;
2544;SDS011;36212;48.838;9.142;2024-01-15T00:57:18;15.85;;;11.85;;
2544;SDS011;36212;48.838;9.142;2024-01-15T00:59:51;18.38;;;11.93;;
2544;SDS011;36212;48.838;9.142;2024-01-15T01:02:23;17.98;;;12.10;;
2544;SDS011;36212;48.838;9.142;2024-01-15T01:04:56;11.93;;;10.15;;
2544;SDS011;36212;48.838;9.142;2024-01-15T01:07:29;18.17;;;12.18;;
2544;SDS011;36212;48.838;9.142;2024-01-15T01:10:01;15.55;;;11.85;;
2544;SDS011;36212;48.838;9.142;2024-01-15T01:12:34;17.00;;;11.05;;
2544;SDS011;36212;48.838;9.142;2024-01-15T01:15:06;16.80;;;11.45;;
2544;SDS011;36212;48.838;9.142;2024-01-15T01:17:39;16.52;;;10.93;;
2544;SDS011;36212;48.838;9.142;2024-01-15T01:20:12;15.20;;;12.20;;
2544;SDS011;36212;48.838;9.142;2024-01-15T01:22:48;17.23;;;11.80;;
2544;SDS011;36212;48.838;9.142;2024-01-15T01:25:20;18.48;;;11.65;;
2544;SDS011;36212;48.838;9.142;2024-01-15T01:27:52;15.05;;;10.02;;
2544;SDS011;36212;48.838;9.142;2024-01-15T01:30:24;11.68;;;10.05;;
2544;SDS011;36212;48.838;9.142;2024-01-15T01:32:57;14.23;;;10.77;;
2544;SDS011;36212;48.838;9.142;2024-01-15T01:35:29;13.40;;;11.23;;
2544;SDS011;36212;48.838;9.142;2024-01-15T01:38:01;15.38;;;11.65;;
2544;SDS011;36212;48.838;9.142;2024-01-15T01:40:34;16.13;;;10.25;;
2544;SDS011;36212;48.838;9.142;2024-01-15T01:43:06;14.55;;;11.15;;
2544;SDS011;36212;48.838;9.142;2024-01-15T01:45:40;14.95;;;11.82;;
2544;SDS011;36212;48.838;9.142;2024-01-15T01:48:12;13.75;;;11.18;;
2544;SDS011;36212;48.838;9.142;2024-01-15T01:50:45;13.57;;;10.10;;
2544;SDS011;36212;48.838;9.142;2024-01-15T01:53:18;16.67;;;11.00;;
2544;SDS011;36212;48.838;9.142;2024-01-15T01:55:50;18.05;;;12.35;;
2544;SDS011;36212;48.838;9.142;2024-01-15T01:58:25;14.13;;;11.95;;
2544;SDS011;36212;48.838;9.142;2024-01-15T02:00:59;13.82;;;11.30;;
2544;SDS011;36212;48.838;9.142;2024-01-15T02:03:32;16.80;;;11.15;;
2544;SDS011;36212;48.838;9.142;2024-01-15T02:06:05;14.25;;;11.10;;
2544;SDS011;36212;48.838;9.142;2024-01-15T02:08:38;16.35;;;10.27;;
2544;SDS011;36212;48.838;9.142;2024-01-15T02:11:13;12.95;;;9.68;;
2544;SDS011;36212;48.838;9.142;2024-01-15T02:13:45;15.63;;;11.20;;
2544;SDS011;36212;48.838;9.142;2024-01-15T02:16:18;16.17;;;11.63;;
2544;SDS011;36212;48.838;9.142;2024-01-15T02:18:50;15.20;;;11.52;;
2544;SDS011;36212;48.838;9.142;2024-01-15T02:21:22;12.43;;;11.07;;
2544;SDS011;36212;48.838;9.142;2024-01-15T02:23:58;12.88;;;10.98;;
2544;SDS011;36212;48.838;9.142;2024-01-15T02:26:30;12.48;;;10.68;;
2544;SDS011;36212;48.838;9.142;2024-01-15T02:29:08;13.55;;;10.48;;
2544;SDS011;36212;48.838;9.142;2024-01-15T02:31:41;14.95;;;11.77;;
2544;SDS011;36212;48.838;9.142;2024-01-15T02:34:13;15.20;;;11.30;;
2544;SDS011;36212;48.838;9.142;2024-01-15T02:36:45;13.43;;;12.10;;
2544;SDS011;36212;48.838;9.142;2024-01-15T02:39:18;12.75;;;11.40;;
2544;SDS011;36212;48.838;9.142;2024-01-15T02:41:50;15.63;;;11.30;;
2544;SDS011;36212;48.838;9.142;2024-01-15T02:44:22;15.45;;;10.82;;
2544;SDS011;36212;48.838;9.142;2024-01-15T02:46:54;11.65;;;10.45;;
2544;SDS011;36212;48.838;9.142;2024-01-15T02:49:26;12.27;;;10.80;;
2544;SDS011;36212;48.838;9.142;2024-01-15T02:51:59;14.10;;;10.30;;
2544;SDS011;36212;48.838;9.142;2024-01-15T02:54:31;12.43;;;11.20;;
2544;SDS011;36212;48.838;9.142;2024-01-15T02:57:04;14.40;;;10.90;;
2544;SDS011;36212;48.838;9.142;2024-01-15T02:59:36;14.68;;;10.93;;
2544;SDS011;36212;48.838;9.142;2024-01-15T03:02:08;11.13;;;8.95;;
2544;SDS011;36212;48.838;9.142;2024-01-15T03:04:44;12.35;;;10.40;;
2544;SDS011;36212;48.838;9.142;2024-01-15T03:07:16;12.15;;;10.02;;
2544;SDS011;36212;48.838;9.142;2024-01-15T03:09:49;13.98;;;10.90;;
2544;SDS011;36212;48.838;9.142;2024-01-15T03:12:21;13.80;;;11.55;;
2544;SDS011;36212;48.838;9.142;2024-01-15T03:14:53;17.23;;;11.75;;
2544;SDS011;36212;48.838;9.142;2024-01-15T03:17:26;14.27;;;9.48;;
2544;SDS011;36212;48.838;9.142;2024-01-15T03:19:58;15.65;;;10.45;;
2544;SDS011;36212;48.838;9.142;2024-01-15T03:22:33;11.13;;;9.73;;
2544;SDS011;36212;48.838;9.142;2024-01-15T03:25:06;13.77;;;9.90;;
2544;SDS011;36212;48.838;9.142;2024-01-15T03:27:39;12.43;;;10.45;;
2544;SDS011;36212;48.838;9.142;2024-01-15T03:30:11;15.05;;;12.15;;
2544;SDS011;36212;48.838;9.142;2024-01-15T03:32:44;15.10;;;10.35;;
2544;SDS011;36212;48.838;9.142;2024-01-15T03:35:17;11.95;;;10.75;;
2544;SDS011;36212;48.838;9.142;2024-01-15T03:37:49;13.55;;;10.00;;
2544;SDS011;36212;48.838;9.142;2024-01-15T03:40:22;14.20;;;10.93;;
2544;SDS011;36212;48.838;9.142;2024-01-15T03:42:54;11.80;;;10.20;;
2544;SDS011;36212;48.838;9.142;2024-01-15T03:45:27;11.25;;;8.52;;
2544;SDS011;36212;48.838;9.142;2024-01-15T03:47:59;9.52;;;8.60;;
2544;SDS011;36212;48.838;9.142;2024-01-15T03:50:31;13.95;;;10.35;;
2544;SDS011;36212;48.838;9.142;2024-01-15T03:53:03;14.85;;;9.57;;
2544;SDS011;36212;48.838;9.142;2024-01-15T03:55:36;13.65;;;10.70;;
2544;SDS011;36212;48.838;9.142;2024-01-15T03:58:08;14.48;;;9.90;;
2544;SDS011;36212;48.838;9.142;2024-01-15T04:00:41;12.15;;;9.38;;
2544;SDS011;36212;48.838;9.142;2024-01-15T04:03:14;12.32;;;9.20;;
2544;SDS011;36212;48.838;9.142;2024-01-15T04:05:47;12.05;;;9.38;;
2544;SDS011;36212;48.838;9.142;2024-01-15T04:08:19;12.68;;;9.23;;
2544;SDS011;36212;48.838;9.142;2024-01-15T04:10:52;14.27;;;10.60;;
2544;SDS011;36212;48.838;9.142;2024-01-15T04:13:25;11.50;;;9.63;;
2544;SDS011;36212;48.838;9.142;2024-01-15T04:15:57;13.93;;;9.68;;
2544;SDS011;36212;48.838;9.142;2024-01-15T04:18:30;11.98;;;9.85;;
2544;SDS011;36212;48.838;9.142;2024-01-15T04:21:04;13.57;;;9.80;;
2544;SDS011;36212;48.838;9.142;2024-01-15T04:23:38;14.38;;;10.27;;
2544;SDS011;36212;48.838;9.142;2024-01-15T04:26:11;14.07;;;9.85;;
2544;SDS011;36212;48.838;9.142;2024-01-15T04:28:43;10.95;;;9.57;;
2544;SDS011;36212;48.838;9.142;2024-01-15T04:31:24;10.40;;;8.68;;
2544;SDS011;36212;48.838;9.142;2024-01-15T04:33:59;9.48;;;8.27;;
2544;SDS011;36212;48.838;9.142;2024-01-15T04:36:31;8.93;;;8.07;;
2544;SDS011;36212;48.838;9.142;2024-01-15T04:39:09;10.27;;;9.25;;
2544;SDS011;36212;48.838;9.142;2024-01-15T04:41:43;10.73;;;9.82;;
2544;SDS011;36212;48.838;9.142;2024-01-15T04:44:15;11.27;;;9.30;;
2544;SDS011;36212;48.838;9.142;2024-01-15T04:46:47;10.10;;;9.05;;
2544;SDS011;36212;48.838;9.142;2024-01-15T04:49:19;10.88;;;9.77;;
2544;SDS011;36212;48.838;9.142;2024-01-15T04:51:52;10.40;;;9.20;;
2544;SDS011;36212;48.838;9.142;2024-01-15T04:54:24;10.45;;;9.30;;
2544;SDS011;36212;48.838;9.142;2024-01-15T04:56:57;10.65;;;9.43;;
2544;SDS011;36212;48.838;9.142;2024-01-15T04:59:29;9.38;;;8.40;;
2544;SDS011;36212;48.838;9.142;2024-01-15T05:02:01;10.88;;;9.77;;
2544;SDS011;36212;48.838;9.142;2024-01-15T05:04:34;9.95;;;8.70;;
2544;SDS011;36212;48.838;9.142;2024-01-15T05:07:06;8.68;;;7.78;;
2544;SDS011;36212;48.838;9.142;2024-01-15T05:09:40;10.10;;;9.25;;
2544;SDS011;36212;48.838;9.142;2024-01-15T05:12:12;12.13;;;9.57;;
2544;SDS011;36212;48.838;9.142;2024-01-15T05:14:45;10.68;;;9.57;;
2544;SDS011;36212;48.838;9.142;2024-01-15T05:17:17;12.73;;;10.25;;
2544;SDS011;36212;48.838;9.142;2024-01-15T05:19:50;16.00;;;11.13;;
2544;SDS011;36212;48.838;9.142;2024-01-15T05:22:22;11.52;;;9.95;;
2544;SDS011;36212;48.838;9.142;2024-01-15T05:24:56;11.55;;;10.45;;
2544;SDS011;36212;48.838;9.142;2024-01-15T05:27:29;12.00;;;10.77;;
2544;SDS011;36212;48.838;9.142;2024-01-15T05:30:01;10.65;;;9.60;;
2544;SDS011;36212;48.838;9.142;2024-01-15T05:32:34;11.32;;;9.75;;
2544;SDS011;36212;48.838;9.142;2024-01-15T05:35:07;10.00;;;8.75;;
2544;SDS011;36212;48.838;9.142;2024-01-15T05:37:43;11.52;;;10.38;;
2544;SDS011;36212;48.838;9.142;2024-01-15T05:40:17;11.57;;;10.07;;
2544;SDS011;36212;48.838;9.142;2024-01-15T05:42:49;11.48;;;9.00;;
2544;SDS011;36212;48.838;9.142;2024-01-15T05:45:21;10.50;;;8.73;;
2544;SDS011;36212;48.838;9.142;2024-01-15T05:47:56;10.13;;;9.15;;
2544;SDS011;36212;48.838;9.142;2024-01-15T05:50:29;9.65;;;8.35;;
2544;SDS011;36212;48.838;9.142;2024-01-15T05:53:01;9.82;;;8.82;;
2544;SDS011;36212;48.838;9.142;2024-01-15T05:55:35;10.60;;;9.57;;
2544;SDS011;36212;48.838;9.142;2024-01-15T05:58:09;13.75;;;9.50;;
2544;SDS011;36212;48.838;9.142;2024-01-15T06:00:42;10.85;;;9.75;;
2544;SDS011;36212;48.838;9.142;2024-01-15T06:03:15;9.82;;;8.93;;
2544;SDS011;36212;48.838;9.142;2024-01-15T06:05:48;12.57;;;10.13;;
2544;SDS011;36212;48.838;9.142;2024-01-15T06:08:20;9.85;;;8.93;;
2544;SDS011;36212;48.838;9.142;2024-01-15T06:10:52;11.90;;;10.80;;
2544;SDS011;36212;48.838;9.142;2024-01-15T06:13:26;10.52;;;9.52;;
2544;SDS011;36212;48.838;9.142;2024-01-15T06:15:58;13.20;;;10.63;;
2544;SDS011;36212;48.838;9.142;2024-01-15T06:18:32;11.23;;;9.45;;
2544;SDS011;36212;48.838;9.142;2024-01-15T06:21:04;11.75;;;9.73;;
2544;SDS011;36212;48.838;9.142;2024-01-15T06:23:37;11.15;;;9.18;;
2544;SDS011;36212;48.838;9.142;2024-01-15T06:26:11;11.57;;;10.30;;
2544;SDS011;36212;48.838;9.142;2024-01-15T06:28:44;10.60;;;9.20;;
2544;SDS011;36212;48.838;9.142;2024-01-15T06:31:16;11.30;;;10.10;;
2544;SDS011;36212;48.838;9.142;2024-01-15T06:33:48;14.20;;;12.07;;
2544;SDS011;36212;48.838;9.142;2024-01-15T06:36:21;12.07;;;10.18;;
2544;SDS011;36212;48.838;9.142;2024-01-15T06:38:53;10.73;;;9.80;;
2544;SDS011;36212;48.838;9.142;2024-01-15T06:41:26;12.68;;;11.35;;
2544;SDS011;36212;48.838;9.142;2024-01-15T06:43:58;11.45;;;10.30;;
2544;SDS011;36212;48.838;9.142;2024-01-15T06:46:32;11.13;;;10.02;;
2544;SDS011;36212;48.838;9.142;2024-01-15T06:49:04;14.30;;;11.98;;
2544;SDS011;36212;48.838;9.142;2024-01-15T06:51:37;11.75;;;10.15;;
2544;SDS011;36212;48.838;9.142;2024-01-15T06:54:09;18.05;;;10.82;;
2544;SDS011;36212;48.838;9.142;2024-01-15T06:56:42;12.38;;;10.77;;
2544;SDS011;36212;48.838;9.142;2024-01-15T06:59:14;10.27;;;9.45;;
2544;SDS011;36212;48.838;9.142;2024-01-15T07:01:53;10.50;;;9.50;;
2544;SDS011;36212;48.838;9.142;2024-01-15T07:04:26;10.07;;;9.00;;
2544;SDS011;36212;48.838;9.142;2024-01-15T07:06:59;10.63;;;9.32;;
2544;SDS011;36212;48.838;9.142;2024-01-15T07:09:31;12.38;;;11.18;;
2544;SDS011;36212;48.838;9.142;2024-01-15T07:12:04;10.02;;;9.05;;
2544;SDS011;36212;48.838;9.142;2024-01-15T07:14:36;12.98;;;10.18;;
2544;SDS011;36212;48.838;9.142;2024-01-15T07:17:09;10.07;;;9.23;;
2544;SDS011;36212;48.838;9.142;2024-01-15T07:19:41;10.32;;;9.32;;
2544;SDS011;36212;48.838;9.142;2024-01-15T07:22:14;13.45;;;12.25;;
2544;SDS011;36212;48.838;9.142;2024-01-15T07:24:50;11.35;;;10.43;;
2544;SDS011;36212;48.838;9.142;2024-01-15T07:27:22;10.25;;;9.35;;
2544;SDS011;36212;48.838;9.142;2024-01-15T07:29:54;9.73;;;8.82;;
2544;SDS011;36212;48.838;9.142;2024-01-15T07:32:29;9.25;;;8.40;;
2544;SDS011;36212;48.838;9.142;2024-01-15T07:35:03;8.90;;;8.30;;
2544;SDS011;36212;48.838;9.142;2024-01-15T07:37:37;12.05;;;10.35;;
2544;SDS011;36212;48.838;9.142;2024-01-15T07:40:09;9.98;;;8.90;;
2544;SDS011;36212;48.838;9.142;2024-01-15T07:42:42;10.30;;;9.38;;
2544;SDS011;36212;48.838;9.142;2024-01-15T07:45:15;11.75;;;10.77;;
2544;SDS011;36212;48.838;9.142;2024-01-15T07:47:47;10.63;;;9.40;;
2544;SDS011;36212;48.838;9.142;2024-01-15T07:50:20;10.48;;;9.45;;
2544;SDS011;36212;48.838;9.142;2024-01-15T07:52:53;10.32;;;9.40;;
2544;SDS011;36212;48.838;9.142;2024-01-15T07:55:25;12.48;;;10.35;;
2544;SDS011;36212;48.838;9.142;2024-01-15T07:57:58;13.85;;;11.15;;
2544;SDS011;36212;48.838;9.142;2024-01-15T08:00:46;9.90;;;8.85;;
2544;SDS011;36212;48.838;9.142;2024-01-15T08:03:18;11.88;;;10.45;;
2544;SDS011;36212;48.838;9.142;2024-01-15T08:05:50;11.85;;;10.70;;
2544;SDS011;36212;48.838;9.142;2024-01-15T08:08:26;11.77;;;10.60;;
2544;SDS011;36212;48.838;9.142;2024-01-15T08:10:58;11.82;;;10.52;;
2544;SDS011;36212;48.838;9.142;2024-01-15T08:13:31;13.82;;;11.00;;
2544;SDS011;36212;48.838;9.142;2024-01-15T08:16:03;13.57;;;10.43;;
2544;SDS011;36212;48.838;9.142;2024-01-15T08:18:36;11.30;;;10.20;;
2544;SDS011;36212;48.838;9.142;2024-01-15T08:21:11;10.13;;;9.07;;
2544;SDS011;36212;48.838;9.142;2024-01-15T08:23:43;11.45;;;9.95;;
2544;SDS011;36212;48.838;9.142;2024-01-15T08:26:15;9.98;;;8.52;;
2544;SDS011;36212;48.838;9.142;2024-01-15T08:28:48;9.38;;;8.43;;
2544;SDS011;36212;48.838;9.142;2024-01-15T08:31:21;9.48;;;8.48;;
2544;SDS011;36212;48.838;9.142;2024-01-15T08:33:54;9.45;;;8.35;;
2544;SDS011;36212;48.838;9.142;2024-01-15T08:36:28;8.27;;;7.47;;
2544;SDS011;36212;48.838;9.142;2024-01-15T08:39:04;9.82;;;8.80;;
2544;SDS011;36212;48.838;9.142;2024-01-15T08:41:37;13.23;;;8.07;;
2544;SDS011;36212;48.838;9.142;2024-01-15T08:44:09;10.75;;;9.65;;
2544;SDS011;36212;48.838;9.142;2024-01-15T08:46:42;8.75;;;7.90;;
2544;SDS011;36212;48.838;9.142;2024-01-15T08:49:15;9.90;;;9.00;;
2544;SDS011;36212;48.838;9.142;2024-01-15T08:51:48;9.13;;;8.05;;
2544;SDS011;36212;48.838;9.142;2024-01-15T08:54:21;8.40;;;7.60;;
2544;SDS011;36212;48.838;9.142;2024-01-15T08:56:53;8.52;;;7.72;;
2544;SDS011;36212;48.838;9.142;2024-01-15T08:59:26;8.35;;;7.75;;
2544;SDS011;36212;48.838;9.142;2024-01-15T09:01:58;10.07;;;8.05;;
2544;SDS011;36212;48.838;9.142;2024-01-15T09:04:33;8.45;;;7.65;;
2544;SDS011;36212;48.838;9.142;2024-01-15T09:07:05;8.30;;;7.60;;
2544;SDS011;36212;48.838;9.142;2024-01-15T09:09:38;8.57;;;7.85;;
2544;SDS011;36212;48.838;9.142;2024-01-15T09:12:12;8.30;;;7.60;;
2544;SDS011;36212;48.838;9.142;2024-01-15T09:14:49;7.47;;;6.88;;
2544;SDS011;36212;48.838;9.142;2024-01-15T09:17:23;8.80;;;7.90;;
2544;SDS011;36212;48.838;9.142;2024-01-15T09:19:58;8.00;;;7.20;;
2544;SDS011;36212;48.838;9.142;2024-01-15T09:22:31;7.93;;;7.13;;
2544;SDS011;36212;48.838;9.142;2024-01-15T09:25:04;8.63;;;7.38;;
2544;SDS011;36212;48.838;9.142;2024-01-15T09:27:37;9.10;;;8.20;;
2544;SDS011;36212;48.838;9.142;2024-01-15T09:30:10;8.07;;;7.47;;
2544;SDS011;36212;48.838;9.142;2024-01-15T09:32:43;9.38;;;7.32;;
2544;SDS011;36212;48.838;9.142;2024-01-15T09:35:16;8.48;;;7.78;;
2544;SDS011;36212;48.838;9.142;2024-01-15T09:37:48;9.98;;;7.43;;
2544;SDS011;36212;48.838;9.142;2024-01-15T09:40:20;8.80;;;8.10;;
2544;SDS011;36212;48.838;9.142;2024-01-15T09:42:53;8.38;;;7.30;;
2544;SDS011;36212;48.838;9.142;2024-01-15T09:45:26;7.70;;;7.00;;
2544;SDS011;36212;48.838;9.142;2024-01-15T09:47:59;7.88;;;7.25;;
2544;SDS011;36212;48.838;9.142;2024-01-15T09:50:31;8.50;;;7.82;;
2544;SDS011;36212;48.838;9.142;2024-01-15T09:53:05;9.15;;;8.48;;
2544;SDS011;36212;48.838;9.142;2024-01-15T09:55:38;9.25;;;8.65;;
2544;SDS011;36212;48.838;9.142;2024-01-15T09:58:11;9.35;;;8.20;;
2544;SDS011;36212;48.838;9.142;2024-01-15T10:00:44;8.00;;;7.40;;
2544;SDS011;36212;48.838;9.142;2024-01-15T10:03:21;8.88;;;8.18;;
2544;SDS011;36212;48.838;9.142;2024-01-15T10:05:54;8.75;;;8.07;;
2544;SDS011;36212;48.838;9.142;2024-01-15T10:08:29;7.45;;;6.72;;
2544;SDS011;36212;48.838;9.142;2024-01-15T10:11:05;8.85;;;8.18;;
2544;SDS011;36212;48.838;9.142;2024-01-15T10:13:38;8.60;;;7.95;;
2544;SDS011;36212;48.838;9.142;2024-01-15T10:16:14;8.80;;;8.05;;
2544;SDS011;36212;48.838;9.142;2024-01-15T10:18:46;7.65;;;7.05;;
2544;SDS011;36212;48.838;9.142;2024-01-15T10:21:20;10.05;;;7.78;;
2544;SDS011;36212;48.838;9.142;2024-01-15T10:23:56;8.45;;;7.78;;
2544;SDS011;36212;48.838;9.142;2024-01-15T10:26:37;9.82;;;8.85;;
2544;SDS011;36212;48.838;9.142;2024-01-15T10:29:09;8.60;;;7.65;;
2544;SDS011;36212;48.838;9.142;2024-01-15T10:31:44;7.95;;;7.15;;
2544;SDS011;36212;48.838;9.142;2024-01-15T10:34:17;9.52;;;8.73;;
2544;SDS011;36212;48.838;9.142;2024-01-15T10:36:51;7.45;;;6.85;;
2544;SDS011;36212;48.838;9.142;2024-01-15T10:39:27;6.70;;;6.15;;
2544;SDS011;36212;48.838;9.142;2024-01-15T10:42:00;6.88;;;6.38;;
2544;SDS011;36212;48.838;9.142;2024-01-15T10:44:34;9.05;;;8.40;;
2544;SDS011;36212;48.838;9.142;2024-01-15T10:47:07;8.68;;;7.88;;
2544;SDS011;36212;48.838;9.142;2024-01-15T10:49:41;7.15;;;6.65;;
2544;SDS011;36212;48.838;9.142;2024-01-15T10:57:04;7.63;;;7.05;;
2544;SDS011;36212;48.838;9.142;2024-01-15T10:59:37;9.13;;;8.27;;
2544;SDS011;36212;48.838;9.142;2024-01-15T11:02:09;7.20;;;6.70;;
2544;SDS011;36212;48.838;9.142;2024-01-15T11:04:44;6.93;;;6.43;;
2544;SDS011;36212;48.838;9.142;2024-01-15T11:07:17;6.13;;;5.70;;
2544;SDS011;36212;48.838;9.142;2024-01-15T11:09:57;7.28;;;6.78;;
2544;SDS011;36212;48.838;9.142;2024-01-15T11:12:34;7.68;;;6.95;;
2544;SDS011;36212;48.838;9.142;2024-01-15T11:15:11;8.63;;;7.93;;
2544;SDS011;36212;48.838;9.142;2024-01-15T11:17:59;7.95;;;7.32;;
2544;SDS011;36212;48.838;9.142;2024-01-15T11:20:37;8.55;;;7.40;;
2544;SDS011;36212;48.838;9.142;2024-01-15T11:28:11;8.02;;;7.28;;
2544;SDS011;36212;48.838;9.142;2024-01-15T11:31:20;7.90;;;7.18;;
2544;SDS011;36212;48.838;9.142;2024-01-15T11:34:12;9.90;;;7.80;;
2544;SDS011;36212;48.838;9.142;2024-01-15T11:42:10;8.73;;;7.85;;
2544;SDS011;36212;48.838;9.142;2024-01-15T11:44:44;9.48;;;8.48;;
2544;SDS011;36212;48.838;9.142;2024-01-15T11:47:16;9.65;;;8.60;;
2544;SDS011;36212;48.838;9.142;2024-01-15T11:50:34;9.75;;;8.80;;
2544;SDS011;36212;48.838;9.142;2024-01-15T11:56:18;9.45;;;8.50;;
2544;SDS011;36212;48.838;9.142;2024-01-15T11:58:54;8.50;;;7.72;;
2544;SDS011;36212;48.838;9.142;2024-01-15T12:01:28;8.75;;;7.80;;
2544;SDS011;36212;48.838;9.142;2024-01-15T12:04:00;10.02;;;9.02;;
2544;SDS011;36212;48.838;9.142;2024-01-15T12:06:33;9.68;;;8.68;;
2544;SDS011;36212;48.838;9.142;2024-01-15T12:09:07;10.80;;;8.90;;
2544;SDS011;36212;48.838;9.142;2024-01-15T12:11:42;11.43;;;8.10;;
2544;SDS011;36212;48.838;9.142;2024-01-15T12:14:25;8.77;;;7.95;;
2544;SDS011;36212;48.838;9.142;2024-01-15T12:17:00;10.07;;;9.27;;
2544;SDS011;36212;48.838;9.142;2024-01-15T12:19:37;9.32;;;8.18;;
2544;SDS011;36212;48.838;9.142;2024-01-15T12:22:09;10.27;;;7.85;;
2544;SDS011;36212;48.838;9.142;2024-01-15T12:24:42;14.07;;;8.02;;
2544;SDS011;36212;48.838;9.142;2024-01-15T12:27:15;8.30;;;7.50;;
2544;SDS011;36212;48.838;9.142;2024-01-15T12:29:48;8.48;;;6.72;;
2544;SDS011;36212;48.838;9.142;2024-01-15T12:32:23;9.85;;;8.35;;
2544;SDS011;36212;48.838;9.142;2024-01-15T12:34:56;9.68;;;8.65;;
2544;SDS011;36212;48.838;9.142;2024-01-15T12:37:28;8.15;;;7.35;;
2544;SDS011;36212;48.838;9.142;2024-01-15T12:40:01;8.10;;;7.30;;
2544;SDS011;36212;48.838;9.142;2024-01-15T12:42:41;8.10;;;7.40;;
2544;SDS011;36212;48.838;9.142;2024-01-15T12:45:14;7.97;;;7.28;;
2544;SDS011;36212;48.838;9.142;2024-01-15T12:47:47;7.80;;;7.20;;
2544;SDS011;36212;48.838;9.142;2024-01-15T12:50:23;8.10;;;6.97;;
2544;SDS011;36212;48.838;9.142;2024-01-15T12:52:58;7.90;;;7.25;;
2544;SDS011;36212;48.838;9.142;2024-01-15T12:55:32;6.30;;;5.90;;
2544;SDS011;36212;48.838;9.142;2024-01-15T12:58:06;11.15;;;6.68;;
2544;SDS011;36212;48.838;9.142;2024-01-15T13:00:39;9.77;;;7.10;;
2544;SDS011;36212;48.838;9.142;2024-01-15T13:03:12;7.50;;;6.90;;
2544;SDS011;36212;48.838;9.142;2024-01-15T13:05:45;8.63;;;6.43;;
2544;SDS011;36212;48.838;9.142;2024-01-15T13:08:19;8.63;;;7.20;;
2544;SDS011;36212;48.838;9.142;2024-01-15T13:10:54;7.45;;;6.80;;
2544;SDS011;36212;48.838;9.142;2024-01-15T13:13:28;8.57;;;6.60;;
2544;SDS011;36212;48.838;9.142;2024-01-15T13:16:04;7.00;;;6.50;;
2544;SDS011;36212;48.838;9.142;2024-01-15T13:18:38;7.30;;;6.70;;
2544;SDS011;36212;48.838;9.142;2024-01-15T13:21:11;6.70;;;6.20;;
2544;SDS011;36212;48.838;9.142;2024-01-15T13:23:46;6.53;;;5.95;;
2544;SDS011;36212;48.838;9.142;2024-01-15T13:26:18;6.43;;;5.90;;
2544;SDS011;36212;48.838;9.142;2024-01-15T13:28:52;6.07;;;5.55;;
2544;SDS011;36212;48.838;9.142;2024-01-15T13:31:25;7.90;;;7.32;;
2544;SDS011;36212;48.838;9.142;2024-01-15T13:33:58;6.85;;;6.35;;
2544;SDS011;36212;48.838;9.142;2024-01-15T13:36:33;7.03;;;6.53;;
2544;SDS011;36212;48.838;9.142;2024-01-15T13:39:05;7.57;;;7.03;;
2544;SDS011;36212;48.838;9.142;2024-01-15T13:41:41;7.28;;;6.70;;
2544;SDS011;36212;48.838;9.142;2024-01-15T13:44:17;8.07;;;7.30;;
2544;SDS011;36212;48.838;9.142;2024-01-15T13:46:50;6.93;;;6.43;;
2544;SDS011;36212;48.838;9.142;2024-01-15T13:49:24;8.07;;;7.35;;
2544;SDS011;36212;48.838;9.142;2024-01-15T13:51:58;7.25;;;6.65;;
2544;SDS011;36212;48.838;9.142;2024-01-15T13:54:31;6.65;;;6.15;;
2544;SDS011;36212;48.838;9.142;2024-01-15T13:57:20;6.60;;;6.20;;
2544;SDS011;36212;48.838;9.142;2024-01-15T13:59:55;8.32;;;7.63;;
2544;SDS011;36212;48.838;9.142;2024-01-15T14:02:28;7.65;;;7.07;;
2544;SDS011;36212;48.838;9.142;2024-01-15T14:05:01;7.85;;;7.25;;
2544;SDS011;36212;48.838;9.142;2024-01-15T14:07:34;7.95;;;7.40;;
2544;SDS011;36212;48.838;9.142;2024-01-15T14:10:07;8.18;;;7.47;;
2544;SDS011;36212;48.838;9.142;2024-01-15T14:12:40;8.35;;;7.75;;
2544;SDS011;36212;48.838;9.142;2024-01-15T14:15:14;7.88;;;7.38;;
2544;SDS011;36212;48.838;9.142;2024-01-15T14:17:48;7.80;;;7.10;;
2544;SDS011;36212;48.838;9.142;2024-01-15T14:20:22;8.50;;;7.80;;
2544;SDS011;36212;48.838;9.142;2024-01-15T14:22:55;8.10;;;7.55;;
2544;SDS011;36212;48.838;9.142;2024-01-15T14:25:27;7.60;;;6.95;;
2544;SDS011;36212;48.838;9.142;2024-01-15T14:28:04;8.25;;;7.65;;
2544;SDS011;36212;48.838;9.142;2024-01-15T14:30:37;8.60;;;7.80;;
2544;SDS011;36212;48.838;9.142;2024-01-15T14:33:10;8.68;;;7.97;;
2544;SDS011;36212;48.838;9.142;2024-01-15T14:35:43;9.88;;;9.15;;
2544;SDS011;36212;48.838;9.142;2024-01-15T14:38:16;9.82;;;8.70;;
2544;SDS011;36212;48.838;9.142;2024-01-15T14:40:49;11.75;;;8.90;;
2544;SDS011;36212;48.838;9.142;2024-01-15T14:43:22;8.98;;;8.23;;
2544;SDS011;36212;48.838;9.142;2024-01-15T14:49:33;10.40;;;9.50;;
2544;SDS011;36212;48.838;9.142;2024-01-15T14:52:17;10.93;;;9.82;;
2544;SDS011;36212;48.838;9.142;2024-01-15T14:54:50;10.90;;;10.00;;
2544;SDS011;36212;48.838;9.142;2024-01-15T14:57:24;10.82;;;9.88;;
2544;SDS011;36212;48.838;9.142;2024-01-15T14:59:56;10.82;;;9.82;;
2544;SDS011;36212;48.838;9.142;2024-01-15T15:02:29;10.68;;;9.77;;
2544;SDS011;36212;48.838;9.142;2024-01-15T15:05:06;12.07;;;11.05;;
2544;SDS011;36212;48.838;9.142;2024-01-15T15:07:56;11.68;;;10.48;;
2544;SDS011;36212;48.838;9.142;2024-01-15T15:10:39;10.95;;;9.85;;
2544;SDS011;36212;48.838;9.142;2024-01-15T15:13:23;12.02;;;10.82;;
2544;SDS011;36212;48.838;9.142;2024-01-15T15:16:16;12.15;;;11.05;;
2544;SDS011;36212;48.838;9.142;2024-01-15T15:18:54;11.35;;;10.13;;
2544;SDS011;36212;48.838;9.142;2024-01-15T15:21:44;12.00;;;10.80;;
2544;SDS011;36212;48.838;9.142;2024-01-15T15:24:21;12.50;;;11.30;;
2544;SDS011;36212;48.838;9.142;2024-01-15T15:27:01;13.98;;;9.70;;
2544;SDS011;36212;48.838;9.142;2024-01-15T15:29:39;11.55;;;10.45;;
2544;SDS011;36212;48.838;9.142;2024-01-15T15:32:23;11.63;;;10.68;;
2544;SDS011;36212;48.838;9.142;2024-01-15T15:35:05;10.25;;;9.30;;
2544;SDS011;36212;48.838;9.142;2024-01-15T15:37:48;11.73;;;10.57;;
2544;SDS011;36212;48.838;9.142;2024-01-15T15:40:28;11.00;;;10.15;;
2544;SDS011;36212;48.838;9.142;2024-01-15T15:47:07;11.55;;;10.55;;
2544;SDS011;36212;48.838;9.142;2024-01-15T15:50:03;8.90;;;8.10;;
2544;SDS011;36212;48.838;9.142;2024-01-15T15:53:49;12.18;;;11.07;;
2544;SDS011;36212;48.838;9.142;2024-01-15T15:56:33;10.82;;;9.82;;